createdAt,value
2018-02-02T00:04:01.430Z,1.67
2018-02-02T00:08:03.961Z,2.00
2018-02-02T00:12:07.232Z,1.87
2018-02-02T00:16:09.768Z,2.57
2018-02-02T00:20:12.881Z,2.20
2018-02-02T00:24:15.403Z,3.23
2018-02-02T00:28:18.112Z,2.50
2018-02-02T00:32:20.637Z,2.00
2018-02-02T00:36:23.152Z,2.47
2018-02-02T00:40:25.702Z,2.30
2018-02-02T00:44:28.203Z,2.00
2018-02-02T00:48:30.750Z,2.73
2018-02-02T00:52:34.066Z,2.40
2018-02-02T00:56:37.620Z,1.83
2018-02-02T01:00:40.141Z,2.00
2018-02-02T01:04:42.848Z,2.80
2018-02-02T01:08:45.412Z,2.20
2018-02-02T01:12:48.749Z,2.10
2018-02-02T01:16:51.651Z,2.27
2018-02-02T01:20:54.214Z,1.90
2018-02-02T01:24:57.587Z,2.03
2018-02-02T01:29:00.085Z,2.67
2018-02-02T01:33:02.620Z,2.80
2018-02-02T01:37:05.145Z,2.90
2018-02-02T01:41:07.675Z,3.03
2018-02-02T01:45:10.959Z,2.80
2018-02-02T01:49:13.501Z,2.30
2018-02-02T01:53:16.018Z,2.57
2018-02-02T01:57:18.839Z,2.33
2018-02-02T02:01:22.119Z,1.70
2018-02-02T02:05:24.627Z,1.63
2018-02-02T02:09:27.943Z,3.13
2018-02-02T02:13:30.492Z,1.37
2018-02-02T02:17:32.986Z,0.90
2018-02-02T02:21:35.519Z,0.50
2018-02-02T02:25:38.035Z,0.73
2018-02-02T02:29:40.560Z,0.70
2018-02-02T02:33:43.841Z,0.90
2018-02-02T02:37:46.424Z,1.07
2018-02-02T02:41:48.880Z,1.17
2018-02-02T02:45:51.404Z,1.30
2018-02-02T02:49:53.940Z,2.23
2018-02-02T02:53:56.448Z,1.63
2018-02-02T02:57:58.977Z,2.00
2018-02-02T03:02:02.238Z,2.07
2018-02-02T03:06:04.756Z,1.70
2018-02-02T03:10:08.033Z,2.53
2018-02-02T03:14:10.557Z,2.60
2018-02-02T03:18:13.842Z,1.60
2018-02-02T03:22:16.385Z,1.27
2018-02-02T03:26:18.901Z,1.33
2018-02-02T03:30:21.423Z,1.10
2018-02-02T03:34:24.704Z,1.30
2018-02-02T03:38:27.223Z,1.37
2018-02-02T03:42:30.164Z,1.47
2018-02-02T03:46:32.687Z,1.10
2018-02-02T03:50:35.951Z,1.47
2018-02-02T03:54:38.481Z,1.07
2018-02-02T03:58:41.740Z,1.50
2018-02-02T04:02:44.267Z,0.97
2018-02-02T04:06:47.532Z,1.27
2018-02-02T04:10:50.824Z,0.93
2018-02-02T04:14:53.355Z,1.27
2018-02-02T04:18:56.629Z,1.17
2018-02-02T04:22:59.152Z,1.50
2018-02-02T04:27:02.422Z,0.80
2018-02-02T04:31:04.987Z,1.13
2018-02-02T04:35:09.939Z,0.73
2018-02-02T04:39:12.467Z,0.80
2018-02-02T04:43:14.978Z,0.70
2018-02-02T04:47:17.493Z,0.80
2018-02-02T04:51:20.009Z,1.00
2018-02-02T04:55:22.529Z,0.70
2018-02-02T04:59:25.049Z,0.70
2018-02-02T05:03:27.563Z,0.97
2018-02-02T05:07:30.092Z,0.80
2018-02-02T05:11:32.590Z,1.20
2018-02-02T05:15:35.100Z,1.30
2018-02-02T05:19:37.587Z,1.87
2018-02-02T05:23:40.142Z,1.83
2018-02-02T05:27:42.657Z,1.90
2018-02-02T05:31:45.174Z,1.80
2018-02-02T05:35:48.447Z,1.90
2018-02-02T05:39:50.962Z,1.70
2018-02-02T05:43:54.245Z,1.90
2018-02-02T05:47:56.774Z,1.83
2018-02-02T05:52:00.069Z,2.27
2018-02-02T05:56:02.591Z,2.63
2018-02-02T06:00:05.100Z,2.60
2018-02-02T06:04:07.632Z,3.37
2018-02-02T06:08:10.155Z,3.63
2018-02-02T06:12:13.449Z,2.83
2018-02-02T06:16:16.722Z,3.70
2018-02-02T06:20:19.265Z,3.57
2018-02-02T06:24:21.890Z,3.00
2018-02-02T06:28:24.407Z,2.60
2018-02-02T06:32:26.909Z,2.40
2018-02-02T06:36:29.436Z,2.63
2018-02-02T06:40:32.702Z,3.20
2018-02-02T06:44:35.224Z,3.80
2018-02-02T06:48:38.492Z,5.10
2018-02-02T06:52:41.009Z,7.13
2018-02-02T06:56:44.281Z,7.00
2018-02-02T07:00:46.813Z,8.57
2018-02-02T07:04:49.320Z,8.73
2018-02-02T07:08:51.850Z,10.27
2018-02-02T07:12:54.359Z,10.47
2018-02-02T07:16:57.661Z,10.13
2018-02-02T07:21:00.981Z,10.77
2018-02-02T07:25:03.497Z,10.13
2018-02-02T07:29:06.011Z,10.63
2018-02-02T07:33:08.536Z,10.40
2018-02-02T07:37:11.058Z,11.00
2018-02-02T07:41:13.585Z,11.43
2018-02-02T07:45:16.886Z,11.03
2018-02-02T07:49:20.106Z,12.50
2018-02-02T07:53:23.404Z,12.57
2018-02-02T07:57:26.671Z,12.83
2018-02-02T08:01:29.194Z,13.93
2018-02-02T08:05:32.471Z,13.83
2018-02-02T08:09:34.997Z,13.97
2018-02-02T08:13:37.531Z,14.63
2018-02-02T08:17:40.032Z,14.50
2018-02-02T08:21:42.653Z,15.33
2018-02-02T08:25:45.172Z,15.60
2018-02-02T08:29:47.812Z,15.73
2018-02-02T08:33:51.113Z,15.77
2018-02-02T08:37:54.415Z,15.10
2018-02-02T08:41:56.908Z,16.10
2018-02-02T08:46:00.206Z,14.97
2018-02-02T08:50:03.480Z,15.97
2018-02-02T08:54:06.785Z,16.50
2018-02-02T08:58:10.061Z,17.40
2018-02-02T09:02:12.592Z,17.13
2018-02-02T09:06:15.088Z,17.00
2018-02-02T09:10:18.398Z,17.60
2018-02-02T09:14:21.664Z,17.43
2018-02-02T09:18:24.203Z,16.47
2018-02-02T09:22:26.725Z,18.60
2018-02-02T09:26:29.258Z,18.80
2018-02-02T09:30:32.535Z,17.70
2018-02-02T09:34:35.070Z,17.80
2018-02-02T09:38:37.573Z,17.13
2018-02-02T09:42:40.107Z,18.13
2018-02-02T09:46:42.604Z,15.60
2018-02-02T09:50:45.967Z,15.60
2018-02-02T09:54:48.503Z,15.53
2018-02-02T09:58:51.811Z,14.33
2018-02-02T10:02:55.930Z,14.60
2018-02-02T10:06:59.341Z,13.50
2018-02-02T10:11:02.655Z,11.73
2018-02-02T10:15:05.191Z,12.10
2018-02-02T10:19:07.705Z,11.30
2018-02-02T10:23:11.143Z,11.57
2018-02-02T10:27:13.665Z,8.77
2018-02-02T10:31:16.217Z,8.03
2018-02-02T10:35:18.752Z,8.10
2018-02-02T10:39:21.283Z,8.00
2018-02-02T10:43:23.794Z,7.17
2018-02-02T10:47:26.331Z,6.30
2018-02-02T10:51:29.596Z,6.60
2018-02-02T10:55:32.118Z,5.47
2018-02-02T10:59:35.389Z,6.43
2018-02-02T11:03:43.673Z,5.63
2018-02-02T11:07:46.188Z,5.37
2018-02-02T11:11:48.717Z,5.90
2018-02-02T11:15:51.983Z,5.70
2018-02-02T11:19:54.509Z,5.50
2018-02-02T11:23:57.767Z,4.53
2018-02-02T11:28:00.292Z,5.37
2018-02-02T11:32:03.565Z,5.53
2018-02-02T11:36:06.103Z,6.10
2018-02-02T11:40:08.613Z,7.67
2018-02-02T11:44:11.136Z,9.43
2018-02-02T11:48:13.655Z,11.27
2018-02-02T11:52:16.202Z,5.93
2018-02-02T11:56:18.767Z,4.30
2018-02-02T12:00:21.292Z,4.90
2018-02-02T12:04:24.564Z,4.10
2018-02-02T12:08:27.774Z,4.27
2018-02-02T12:12:30.273Z,4.53
2018-02-02T12:16:32.801Z,4.70
2018-02-02T12:20:35.318Z,5.10
2018-02-02T12:24:43.483Z,5.00
2018-02-02T12:28:52.455Z,5.93
2018-02-02T12:33:09.866Z,5.73
2018-02-02T12:37:12.382Z,6.73
2018-02-02T12:41:14.896Z,6.50
2018-02-02T12:45:17.415Z,5.00
2018-02-02T12:49:34.957Z,4.70
2018-02-02T12:53:37.506Z,4.07
2018-02-02T12:57:40.098Z,6.33
2018-02-02T13:01:43.054Z,5.97
2018-02-02T13:05:45.611Z,6.83
2018-02-02T13:09:48.934Z,9.37
2018-02-02T13:13:51.443Z,4.43
2018-02-02T13:17:54.122Z,3.30
2018-02-02T13:21:56.776Z,3.70
2018-02-02T13:25:59.313Z,3.07
2018-02-02T13:30:01.841Z,3.10
2018-02-02T13:34:05.110Z,2.80
2018-02-02T13:38:07.640Z,3.30
2018-02-02T13:42:10.159Z,4.40
2018-02-02T13:46:12.717Z,4.37
2018-02-02T13:50:15.234Z,4.63
2018-02-02T13:58:55.950Z,4.00
2018-02-02T14:02:59.229Z,3.83
2018-02-02T14:07:01.761Z,3.57
2018-02-02T14:11:04.263Z,3.80
2018-02-02T14:15:06.927Z,3.40
2018-02-02T14:19:09.550Z,3.80
2018-02-02T14:23:12.109Z,3.53
2018-02-02T14:27:14.647Z,4.17
2018-02-02T14:31:17.190Z,3.30
2018-02-02T14:35:19.719Z,2.50
2018-02-02T14:39:22.232Z,2.70
2018-02-02T14:43:25.517Z,2.60
2018-02-02T14:47:29.258Z,2.47
2018-02-02T14:51:32.723Z,2.40
2018-02-02T14:55:35.264Z,2.23
2018-02-02T14:59:37.782Z,2.00
2018-02-02T15:03:40.309Z,2.50
2018-02-02T15:07:43.583Z,2.73
2018-02-02T15:11:46.105Z,2.23
2018-02-02T15:15:49.400Z,2.00
2018-02-02T15:19:52.685Z,2.00
2018-02-02T15:23:55.200Z,1.80
2018-02-02T15:27:58.511Z,0.90
2018-02-02T15:32:01.788Z,1.10
2018-02-02T15:36:04.310Z,0.90
2018-02-02T15:40:06.939Z,1.00
2018-02-02T15:44:09.509Z,1.30
2018-02-02T15:48:12.099Z,2.83
2018-02-02T15:52:14.651Z,1.77
2018-02-02T15:56:17.174Z,2.17
2018-02-02T16:00:19.717Z,2.30
2018-02-02T16:04:23.026Z,2.40
2018-02-02T16:08:26.317Z,2.13
2018-02-02T16:12:29.600Z,2.03
2018-02-02T16:16:32.149Z,2.57
2018-02-02T16:20:34.671Z,2.93
2018-02-02T16:24:37.219Z,2.90
2018-02-02T16:28:39.757Z,2.40
2018-02-02T16:32:43.087Z,2.97
2018-02-02T16:36:45.603Z,3.13
2018-02-02T16:40:48.153Z,3.00
2018-02-02T16:44:50.689Z,3.40
2018-02-02T16:48:53.263Z,3.80
2018-02-02T16:52:55.772Z,3.40
2018-02-02T16:56:58.297Z,3.87
2018-02-02T17:01:01.591Z,4.43
2018-02-02T17:05:05.498Z,4.67
2018-02-02T17:09:08.045Z,4.40
2018-02-02T17:13:10.663Z,4.67
2018-02-02T17:17:13.946Z,4.67
2018-02-02T17:21:16.674Z,4.73
2018-02-02T17:25:19.993Z,4.90
2018-02-02T17:29:22.641Z,5.00
2018-02-02T17:33:25.145Z,5.03
2018-02-02T17:37:27.701Z,5.30
2018-02-02T17:41:30.824Z,5.07
2018-02-02T17:45:33.368Z,5.80
2018-02-02T17:49:35.876Z,4.90
2018-02-02T17:53:38.428Z,4.43
2018-02-02T17:57:41.040Z,5.43
2018-02-02T18:01:45.455Z,6.63
2018-02-02T18:05:48.008Z,6.03
2018-02-02T18:09:51.327Z,5.47
2018-02-02T18:13:53.870Z,4.87
2018-02-02T18:17:56.410Z,6.07
2018-02-02T18:21:58.966Z,6.27
2018-02-02T18:26:02.275Z,5.93
2018-02-02T18:30:05.573Z,7.67
2018-02-02T18:34:08.906Z,6.83
2018-02-02T18:38:11.428Z,5.50
2018-02-02T18:42:14.735Z,5.17
2018-02-02T18:46:17.726Z,6.03
2018-02-02T18:50:20.268Z,5.80
2018-02-02T18:54:22.807Z,5.50
2018-02-02T18:58:25.353Z,5.77
2018-02-02T19:02:27.913Z,5.53
2018-02-02T19:06:31.231Z,5.70
2018-02-02T19:10:33.747Z,4.90
2018-02-02T19:14:36.287Z,5.37
2018-02-02T19:18:39.581Z,5.93
2018-02-02T19:22:42.146Z,5.10
2018-02-02T19:26:45.300Z,5.23
2018-02-02T19:30:47.897Z,6.47
2018-02-02T19:34:50.427Z,7.60
2018-02-02T19:38:53.185Z,5.67
2018-02-02T19:42:55.770Z,6.03
2018-02-02T19:46:58.327Z,6.10
2018-02-02T19:51:00.945Z,6.00
2018-02-02T19:55:03.491Z,4.40
2018-02-02T19:59:06.799Z,4.23
2018-02-02T20:03:10.109Z,4.77
2018-02-02T20:07:12.631Z,4.30
2018-02-02T20:11:15.232Z,4.77
2018-02-02T20:15:18.494Z,4.67
2018-02-02T20:19:21.043Z,4.33
2018-02-02T20:23:23.590Z,4.43
2018-02-02T20:27:26.182Z,4.30
2018-02-02T20:31:28.720Z,3.87
2018-02-02T20:35:32.042Z,4.40
2018-02-02T20:39:34.603Z,4.50
2018-02-02T20:43:37.963Z,4.20
2018-02-02T20:47:40.473Z,3.77
2018-02-02T20:51:43.027Z,5.00
2018-02-02T20:55:45.558Z,4.33
2018-02-02T20:59:48.124Z,4.70
2018-02-02T21:03:50.632Z,2.47
2018-02-02T21:07:53.874Z,3.60
2018-02-02T21:11:56.412Z,3.80
2018-02-02T21:15:58.926Z,3.90
2018-02-02T21:20:02.224Z,3.47
2018-02-02T21:24:05.598Z,3.67
2018-02-02T21:28:08.807Z,4.07
2018-02-02T21:32:11.338Z,3.90
2018-02-02T21:36:13.928Z,3.13
2018-02-02T21:40:16.441Z,3.70
2018-02-02T21:44:18.966Z,3.90
2018-02-02T21:48:22.296Z,3.97
2018-02-02T21:52:24.843Z,3.90
2018-02-02T21:56:27.469Z,3.83
2018-02-02T22:00:29.993Z,3.93
2018-02-02T22:04:32.511Z,4.20
2018-02-02T22:08:35.142Z,3.97
2018-02-02T22:12:37.647Z,4.27
2018-02-02T22:16:40.190Z,4.30
2018-02-02T22:20:43.493Z,4.30
2018-02-02T22:24:46.781Z,4.40
2018-02-02T22:28:49.366Z,4.17
2018-02-02T22:32:52.194Z,4.57
2018-02-02T22:36:54.719Z,4.23
2018-02-02T22:40:57.263Z,4.13
2018-02-02T22:44:59.807Z,4.17
2018-02-02T22:49:03.443Z,3.87
2018-02-02T22:53:07.834Z,4.23
2018-02-02T22:57:10.358Z,3.90
2018-02-02T23:01:13.631Z,4.67
2018-02-02T23:05:17.043Z,4.50
2018-02-02T23:09:19.565Z,4.20
2018-02-02T23:13:22.856Z,3.83
2018-02-02T23:17:26.177Z,3.93
2018-02-02T23:21:28.752Z,3.80
2018-02-02T23:25:32.026Z,3.37
2018-02-02T23:29:34.541Z,3.50
2018-02-02T23:33:37.832Z,3.67
2018-02-02T23:37:41.231Z,4.03
2018-02-02T23:41:43.749Z,3.90
2018-02-02T23:45:46.298Z,4.00
2018-02-02T23:49:48.854Z,3.90
2018-02-02T23:53:51.371Z,3.93
2018-02-02T23:57:53.920Z,3.80
